createdAt,value
2019-05-28T00:01:44.682Z,10.30
2019-05-28T00:04:13.494Z,10.20
2019-05-28T00:06:42.315Z,10.20
2019-05-28T00:09:11.069Z,10.20
2019-05-28T00:11:39.852Z,10.20
2019-05-28T00:14:08.674Z,10.20
2019-05-28T00:16:37.437Z,10.10
2019-05-28T00:19:06.251Z,10.10
2019-05-28T00:21:34.999Z,10.10
2019-05-28T00:24:03.785Z,10.00
2019-05-28T00:26:32.612Z,9.90
2019-05-28T00:29:01.388Z,9.90
2019-05-28T00:31:30.283Z,9.80
2019-05-28T00:33:58.964Z,9.80
2019-05-28T00:36:27.898Z,9.70
2019-05-28T00:38:56.629Z,9.70
2019-05-28T00:41:25.452Z,9.70
2019-05-28T00:43:54.206Z,9.70
2019-05-28T00:46:23.128Z,9.60
2019-05-28T00:48:51.876Z,9.60
2019-05-28T00:51:22.175Z,9.60
2019-05-28T00:53:50.913Z,9.60
2019-05-28T00:56:20.038Z,9.60
2019-05-28T00:58:48.960Z,9.60
2019-05-28T01:01:20.464Z,9.50
2019-05-28T01:03:49.137Z,9.50
2019-05-28T01:06:17.972Z,9.50
2019-05-28T01:08:46.650Z,9.40
2019-05-28T01:11:15.480Z,9.40
2019-05-28T01:13:44.353Z,9.40
2019-05-28T01:16:13.074Z,9.40
2019-05-28T01:18:43.294Z,9.40
2019-05-28T01:21:12.053Z,9.40
2019-05-28T01:23:40.935Z,9.50
2019-05-28T01:26:09.722Z,9.40
2019-05-28T01:28:38.458Z,9.40
2019-05-28T01:31:09.124Z,9.40
2019-05-28T01:33:37.626Z,9.40
2019-05-28T01:36:06.402Z,9.40
2019-05-28T01:38:35.220Z,9.40
2019-05-28T01:41:04.031Z,9.40
2019-05-28T01:43:32.756Z,9.40
2019-05-28T01:46:01.474Z,9.40
2019-05-28T01:48:30.274Z,9.40
2019-05-28T01:50:59.215Z,9.50
2019-05-28T01:53:27.973Z,9.40
2019-05-28T01:55:56.731Z,9.40
2019-05-28T01:58:25.474Z,9.50
2019-05-28T02:01:09.552Z,9.50
2019-05-28T02:03:24.811Z,9.50
2019-05-28T02:05:53.549Z,9.50
2019-05-28T02:08:22.296Z,9.50
2019-05-28T02:10:51.036Z,9.50
2019-05-28T02:13:19.807Z,9.50
2019-05-28T02:15:48.485Z,9.50
2019-05-28T02:18:17.314Z,9.60
2019-05-28T02:20:45.986Z,9.60
2019-05-28T02:23:14.815Z,9.70
2019-05-28T02:25:44.250Z,9.70
2019-05-28T02:28:13.100Z,9.70
2019-05-28T02:30:41.838Z,9.80
2019-05-28T02:33:10.672Z,9.90
2019-05-28T02:35:41.207Z,9.90
2019-05-28T02:38:09.959Z,10.00
2019-05-28T02:40:38.730Z,10.00
2019-05-28T02:43:07.554Z,10.00
2019-05-28T02:45:36.342Z,10.00
2019-05-28T02:48:05.570Z,10.10
2019-05-28T02:50:53.729Z,10.10
2019-05-28T02:53:22.982Z,10.10
2019-05-28T02:55:52.810Z,10.20
2019-05-28T02:58:23.466Z,10.10
2019-05-28T03:00:53.466Z,10.20
2019-05-28T03:03:24.765Z,10.20
2019-05-28T03:05:55.721Z,10.20
2019-05-28T03:08:25.581Z,10.20
2019-05-28T03:11:02.394Z,10.20
2019-05-28T03:13:24.938Z,10.20
2019-05-28T03:15:56.763Z,10.20
2019-05-28T03:18:27.598Z,10.40
2019-05-28T03:20:58.523Z,10.20
2019-05-28T03:23:29.941Z,10.40
2019-05-28T03:25:58.874Z,10.50
2019-05-28T03:28:27.731Z,10.60
2019-05-28T03:30:56.544Z,10.70
2019-05-28T03:33:25.287Z,10.70
2019-05-28T03:35:56.616Z,10.80
2019-05-28T03:38:26.354Z,10.80
2019-05-28T03:40:55.193Z,10.80
2019-05-28T03:43:23.941Z,10.90
2019-05-28T03:45:52.760Z,10.90
2019-05-28T03:48:21.589Z,10.80
2019-05-28T03:50:50.336Z,10.90
2019-05-28T03:53:20.532Z,11.00
2019-05-28T03:55:49.397Z,11.00
2019-05-28T03:58:23.950Z,11.10
2019-05-28T04:00:52.338Z,11.10
2019-05-28T04:03:24.145Z,11.10
2019-05-28T04:05:53.005Z,11.20
2019-05-28T04:08:24.705Z,11.20
2019-05-28T04:10:55.261Z,11.30
2019-05-28T04:13:24.123Z,11.40
2019-05-28T04:15:52.934Z,11.50
2019-05-28T04:18:23.229Z,11.60
2019-05-28T04:20:51.972Z,11.60
2019-05-28T04:23:20.795Z,11.50
2019-05-28T04:25:49.496Z,11.70
2019-05-28T04:28:18.402Z,11.70
2019-05-28T04:30:47.224Z,11.70
2019-05-28T04:33:15.972Z,11.70
2019-05-28T04:35:44.730Z,11.80
2019-05-28T04:38:13.484Z,11.80
2019-05-28T04:40:42.205Z,11.90
2019-05-28T04:43:11.152Z,11.90
2019-05-28T04:45:39.900Z,11.90
2019-05-28T04:48:08.639Z,11.90
2019-05-28T04:50:37.396Z,11.90
2019-05-28T04:53:06.618Z,11.90
2019-05-28T04:55:35.299Z,12.00
2019-05-28T04:58:04.111Z,12.00
2019-05-28T05:00:32.868Z,12.00
2019-05-28T05:03:01.727Z,12.00
2019-05-28T05:05:30.459Z,12.20
2019-05-28T05:07:59.267Z,12.20
2019-05-28T05:10:28.119Z,12.20
2019-05-28T05:12:56.922Z,12.20
2019-05-28T05:15:25.793Z,12.20
2019-05-28T05:17:54.611Z,12.10
2019-05-28T05:20:23.283Z,12.00
2019-05-28T05:22:52.053Z,12.10
2019-05-28T05:25:21.324Z,12.00
2019-05-28T05:27:50.077Z,12.00
2019-05-28T05:30:18.777Z,12.00
2019-05-28T05:32:47.641Z,12.00
2019-05-28T05:35:16.663Z,12.00
2019-05-28T05:37:45.497Z,12.00
2019-05-28T05:40:14.402Z,11.90
2019-05-28T05:42:43.139Z,12.00
2019-05-28T05:45:12.268Z,12.00
2019-05-28T05:47:41.013Z,12.00
2019-05-28T05:50:09.838Z,12.10
2019-05-28T05:52:38.515Z,12.10
2019-05-28T05:55:08.542Z,12.10
2019-05-28T05:57:37.402Z,12.20
2019-05-28T06:00:06.673Z,12.20
2019-05-28T06:02:35.454Z,12.30
2019-05-28T06:05:05.681Z,12.30
2019-05-28T06:07:35.679Z,12.30
2019-05-28T06:10:06.977Z,12.40
2019-05-28T06:12:35.728Z,12.30
2019-05-28T06:15:06.650Z,12.30
2019-05-28T06:17:35.408Z,12.30
2019-05-28T06:20:07.250Z,12.30
2019-05-28T06:22:36.085Z,12.40
2019-05-28T06:25:06.406Z,12.50
2019-05-28T06:27:35.244Z,12.50
2019-05-28T06:30:07.915Z,12.50
2019-05-28T06:32:38.062Z,12.60
2019-05-28T06:35:07.818Z,12.70
2019-05-28T06:37:36.528Z,12.90
2019-05-28T06:40:08.424Z,13.00
2019-05-28T06:42:39.753Z,13.00
2019-05-28T06:45:07.994Z,13.00
2019-05-28T06:47:36.777Z,12.90
2019-05-28T06:50:13.486Z,12.90
2019-05-28T06:52:44.125Z,12.90
2019-05-28T06:55:12.962Z,12.90
2019-05-28T06:57:41.811Z,12.90
2019-05-28T07:00:12.967Z,12.90
2019-05-28T07:02:41.835Z,13.00
2019-05-28T07:05:10.596Z,12.90
2019-05-28T07:07:39.429Z,12.90
2019-05-28T07:10:08.957Z,12.90
2019-05-28T07:12:37.022Z,13.00
2019-05-28T07:15:07.499Z,13.00
2019-05-28T07:17:36.261Z,13.10
2019-05-28T07:20:07.212Z,13.10
2019-05-28T07:22:36.019Z,13.20
2019-05-28T07:25:07.165Z,13.30
2019-05-28T07:27:36.166Z,13.30
2019-05-28T07:30:08.122Z,13.40
2019-05-28T07:32:37.182Z,13.50
2019-05-28T07:35:07.228Z,13.60
2019-05-28T07:37:36.062Z,13.60
2019-05-28T07:40:06.967Z,13.70
2019-05-28T07:42:35.767Z,13.80
2019-05-28T07:45:05.242Z,13.80
2019-05-28T07:47:34.074Z,13.90
2019-05-28T07:50:02.814Z,14.00
2019-05-28T07:52:31.660Z,14.00
2019-05-28T07:55:00.356Z,14.10
2019-05-28T07:57:29.245Z,14.10
2019-05-28T07:59:57.999Z,14.00
2019-05-28T08:02:26.831Z,14.10
2019-05-28T08:04:55.691Z,14.10
2019-05-28T08:07:24.541Z,14.10
2019-05-28T08:09:53.290Z,14.10
2019-05-28T08:12:22.127Z,14.20
2019-05-28T08:14:50.962Z,14.20
2019-05-28T08:17:20.077Z,14.30
2019-05-28T08:19:48.919Z,14.30
2019-05-28T08:22:17.763Z,14.30
2019-05-28T08:24:46.630Z,14.30
2019-05-28T08:27:15.349Z,14.30
2019-05-28T08:29:45.672Z,14.30
2019-05-28T08:32:14.674Z,14.30
2019-05-28T08:34:43.555Z,14.40
2019-05-28T08:37:12.379Z,14.40
2019-05-28T08:39:41.274Z,14.40
2019-05-28T08:42:10.108Z,14.40
2019-05-28T08:44:38.908Z,14.40
2019-05-28T08:47:07.681Z,14.40
2019-05-28T08:49:36.495Z,14.50
2019-05-28T08:52:05.262Z,14.50
2019-05-28T08:54:34.068Z,14.50
2019-05-28T08:57:02.831Z,14.50
2019-05-28T08:59:31.680Z,14.70
2019-05-28T09:02:00.448Z,14.70
2019-05-28T09:04:29.434Z,14.70
2019-05-28T09:06:58.101Z,14.80
2019-05-28T09:09:26.936Z,14.70
2019-05-28T09:11:57.702Z,14.80
2019-05-28T09:14:26.246Z,14.80
2019-05-28T09:16:55.070Z,14.90
2019-05-28T09:19:23.980Z,14.90
2019-05-28T09:21:52.775Z,15.00
2019-05-28T09:24:21.802Z,15.00
2019-05-28T09:26:50.582Z,15.00
2019-05-28T09:29:20.859Z,15.00
2019-05-28T09:31:49.712Z,15.10
2019-05-28T09:34:18.471Z,15.10
2019-05-28T09:36:48.284Z,15.20
2019-05-28T09:39:17.069Z,15.30
2019-05-28T09:41:45.885Z,15.30
2019-05-28T09:44:14.714Z,15.40
2019-05-28T09:46:43.560Z,15.40
2019-05-28T09:49:12.290Z,15.40
2019-05-28T09:51:41.108Z,15.40
2019-05-28T09:54:09.942Z,15.40
2019-05-28T09:56:40.713Z,15.40
2019-05-28T09:59:09.123Z,15.40
2019-05-28T10:01:38.100Z,15.30
2019-05-28T10:04:06.840Z,15.30
2019-05-28T10:06:37.459Z,15.30
2019-05-28T10:09:07.172Z,15.20
2019-05-28T10:11:35.986Z,15.20
2019-05-28T10:14:05.062Z,15.30
2019-05-28T10:16:33.918Z,15.30
2019-05-28T10:19:02.668Z,15.30
2019-05-28T10:21:31.536Z,15.10
2019-05-28T10:24:00.283Z,15.20
2019-05-28T10:26:29.170Z,15.10
2019-05-28T10:28:57.874Z,15.20
2019-05-28T10:31:26.703Z,15.10
2019-05-28T10:33:55.631Z,15.10
2019-05-28T10:36:35.924Z,15.10
2019-05-28T10:38:57.875Z,15.20
2019-05-28T10:41:26.647Z,15.30
2019-05-28T10:43:55.418Z,15.30
2019-05-28T10:46:24.258Z,15.40
2019-05-28T10:48:52.985Z,15.50
2019-05-28T10:51:21.816Z,15.80
2019-05-28T10:53:50.700Z,16.10
2019-05-28T10:56:19.461Z,16.20
2019-05-28T10:58:48.885Z,16.20
2019-05-28T11:01:17.048Z,16.20
2019-05-28T11:03:47.183Z,16.30
2019-05-28T11:06:16.274Z,16.30
2019-05-28T11:08:45.153Z,16.20
2019-05-28T11:11:13.934Z,16.00
2019-05-28T11:13:52.533Z,16.00
2019-05-28T11:16:13.156Z,15.90
2019-05-28T11:18:41.922Z,15.90
2019-05-28T11:21:10.760Z,15.60
2019-05-28T11:23:39.674Z,15.60
2019-05-28T11:26:08.456Z,15.50
2019-05-28T11:28:37.215Z,15.50
2019-05-28T11:31:06.021Z,15.50
2019-05-28T11:33:34.771Z,15.50
2019-05-28T11:36:03.604Z,15.50
2019-05-28T11:38:32.295Z,15.30
2019-05-28T11:41:01.134Z,15.20
2019-05-28T11:43:30.173Z,15.20
2019-05-28T11:45:58.992Z,15.20
2019-05-28T11:48:27.930Z,15.10
2019-05-28T11:50:56.707Z,15.10
2019-05-28T11:53:25.524Z,15.10
2019-05-28T11:55:54.368Z,15.10
2019-05-28T11:58:23.104Z,15.10
2019-05-28T12:00:52.042Z,14.90
2019-05-28T12:03:20.791Z,14.90
2019-05-28T12:05:49.621Z,14.90
2019-05-28T12:08:18.544Z,14.90
2019-05-28T12:10:47.292Z,14.90
2019-05-28T12:13:18.215Z,14.80
2019-05-28T12:15:46.906Z,14.80
2019-05-28T12:18:15.724Z,14.80
2019-05-28T12:20:44.474Z,14.80
2019-05-28T12:23:13.426Z,14.70
2019-05-28T12:25:42.190Z,14.70
2019-05-28T12:28:10.970Z,14.70
2019-05-28T12:30:39.813Z,14.80
2019-05-28T12:33:08.642Z,14.80
2019-05-28T12:35:42.523Z,14.80
2019-05-28T12:38:07.970Z,14.80
2019-05-28T12:40:47.173Z,14.70
2019-05-28T12:43:07.218Z,14.80
2019-05-28T12:45:36.362Z,14.70
2019-05-28T12:48:11.785Z,14.70
2019-05-28T12:50:36.166Z,14.70
2019-05-28T12:53:04.997Z,14.60
2019-05-28T12:55:33.767Z,14.70
2019-05-28T12:58:02.574Z,14.70
2019-05-28T13:00:31.959Z,14.60
2019-05-28T13:03:00.850Z,14.60
2019-05-28T13:05:29.947Z,14.60
2019-05-28T13:08:08.155Z,14.60
2019-05-28T13:10:29.156Z,14.50
2019-05-28T13:12:57.907Z,14.50
2019-05-28T13:15:26.659Z,14.60
2019-05-28T13:17:55.489Z,14.50
2019-05-28T13:20:24.314Z,14.50
2019-05-28T13:22:53.197Z,14.50
2019-05-28T13:25:22.059Z,14.50
2019-05-28T13:27:50.800Z,14.50
2019-05-28T13:30:19.717Z,14.50
2019-05-28T13:32:48.590Z,14.50
2019-05-28T13:35:18.539Z,14.50
2019-05-28T13:37:47.258Z,14.40
2019-05-28T13:40:16.617Z,14.50
2019-05-28T13:42:45.354Z,14.50
2019-05-28T13:45:15.131Z,14.50
2019-05-28T13:47:43.828Z,14.50
2019-05-28T13:50:14.744Z,14.50
2019-05-28T13:52:43.404Z,14.50
2019-05-28T13:55:13.304Z,14.50
2019-05-28T13:57:42.209Z,14.60
2019-05-28T14:00:15.686Z,14.60
2019-05-28T14:02:46.270Z,14.60
2019-05-28T14:05:16.991Z,14.70
2019-05-28T14:07:45.797Z,14.70
2019-05-28T14:10:15.121Z,14.70
2019-05-28T14:12:43.896Z,14.70
2019-05-28T14:15:14.424Z,14.80
2019-05-28T14:17:43.255Z,14.70
2019-05-28T14:20:13.447Z,14.80
2019-05-28T14:22:42.296Z,14.90
2019-05-28T14:25:12.003Z,14.90
2019-05-28T14:27:40.684Z,15.00
2019-05-28T14:30:11.512Z,15.00
2019-05-28T14:32:40.306Z,14.90
2019-05-28T14:35:09.430Z,14.90
2019-05-28T14:37:38.344Z,15.00
2019-05-28T14:40:07.876Z,14.90
2019-05-28T14:42:35.875Z,15.00
2019-05-28T14:45:06.784Z,15.00
2019-05-28T14:47:35.544Z,15.00
2019-05-28T14:50:06.867Z,15.00
2019-05-28T14:52:35.691Z,15.00
2019-05-28T14:55:07.433Z,15.10
2019-05-28T14:57:36.339Z,15.20
2019-05-28T15:00:08.460Z,15.20
2019-05-28T15:02:37.208Z,15.20
2019-05-28T15:05:07.906Z,15.30
2019-05-28T15:07:36.657Z,15.20
2019-05-28T15:10:11.419Z,15.30
2019-05-28T15:12:40.773Z,15.30
2019-05-28T15:15:15.703Z,15.40
2019-05-28T15:17:44.520Z,15.40
2019-05-28T15:20:13.537Z,15.40
2019-05-28T15:22:42.294Z,15.40
2019-05-28T15:25:11.728Z,15.40
2019-05-28T15:27:40.478Z,15.40
2019-05-28T15:30:11.424Z,15.40
2019-05-28T15:32:40.185Z,15.40
2019-05-28T15:35:11.111Z,15.40
2019-05-28T15:37:40.052Z,15.50
2019-05-28T15:40:10.085Z,15.50
2019-05-28T15:42:38.942Z,15.50
2019-05-28T15:45:12.725Z,15.50
2019-05-28T15:47:44.674Z,15.50
2019-05-28T15:50:13.147Z,15.60
2019-05-28T15:52:41.912Z,15.60
2019-05-28T15:55:11.502Z,15.60
2019-05-28T15:57:39.476Z,15.60
2019-05-28T16:00:09.908Z,15.60
2019-05-28T16:02:38.706Z,15.70
2019-05-28T16:05:08.295Z,15.70
2019-05-28T16:07:37.050Z,15.60
2019-05-28T16:10:09.958Z,15.60
2019-05-28T16:12:38.729Z,15.60
2019-05-28T16:15:09.161Z,15.70
2019-05-28T16:17:37.970Z,15.70
2019-05-28T16:20:08.550Z,15.70
2019-05-28T16:22:37.299Z,15.70
2019-05-28T16:25:08.523Z,15.70
2019-05-28T16:27:37.507Z,15.70
2019-05-28T16:30:08.798Z,15.70
2019-05-28T16:32:37.671Z,15.80
2019-05-28T16:35:11.380Z,15.90
2019-05-28T16:37:40.139Z,15.90
2019-05-28T16:40:15.779Z,16.00
2019-05-28T16:42:41.634Z,15.90
2019-05-28T16:45:12.083Z,15.90
2019-05-28T16:47:43.580Z,15.80
2019-05-28T16:50:13.698Z,15.80
2019-05-28T16:52:44.907Z,15.90
2019-05-28T16:55:13.903Z,15.90
2019-05-28T16:57:43.634Z,15.90
2019-05-28T17:00:15.178Z,15.90
2019-05-28T17:02:44.005Z,15.90
2019-05-28T17:05:12.935Z,16.00
2019-05-28T17:07:43.266Z,16.00
2019-05-28T17:10:30.952Z,16.00
2019-05-28T17:12:44.438Z,16.10
2019-05-28T17:15:15.173Z,16.20
2019-05-28T17:17:44.048Z,16.20
2019-05-28T17:20:13.471Z,16.20
2019-05-28T17:22:42.519Z,16.20
2019-05-28T17:25:12.288Z,16.20
2019-05-28T17:27:44.515Z,16.20
2019-05-28T17:30:22.739Z,16.20
2019-05-28T17:32:50.086Z,16.30
2019-05-28T17:35:26.842Z,16.20
2019-05-28T17:37:57.782Z,16.20
2019-05-28T17:40:30.272Z,16.20
2019-05-28T17:43:02.502Z,16.20
2019-05-28T17:45:31.734Z,16.20
2019-05-28T17:48:52.022Z,16.20
2019-05-28T17:51:23.620Z,16.20
2019-05-28T17:53:52.484Z,16.30
2019-05-28T17:56:24.518Z,16.20
2019-05-28T17:58:53.807Z,16.20
2019-05-28T18:01:22.577Z,16.20
2019-05-28T18:03:51.798Z,16.20
2019-05-28T18:06:20.561Z,16.20
2019-05-28T18:08:50.770Z,16.20
2019-05-28T18:11:19.589Z,16.20
2019-05-28T18:13:50.057Z,16.20
2019-05-28T18:16:18.953Z,16.20
2019-05-28T18:18:47.700Z,16.20
2019-05-28T18:21:16.514Z,16.20
2019-05-28T18:23:45.235Z,16.20
2019-05-28T18:26:14.143Z,16.20
2019-05-28T18:28:42.926Z,16.20
2019-05-28T18:31:11.729Z,16.20
2019-05-28T18:33:41.586Z,16.10
2019-05-28T18:36:10.439Z,16.10
2019-05-28T18:38:43.556Z,16.10
2019-05-28T18:41:21.028Z,16.10
2019-05-28T18:43:39.965Z,16.10
2019-05-28T18:46:08.757Z,16.10
2019-05-28T18:48:38.445Z,16.10
2019-05-28T18:51:08.949Z,16.10
2019-05-28T18:53:40.913Z,16.10
2019-05-28T18:56:17.600Z,16.10
2019-05-28T18:58:45.381Z,16.10
2019-05-28T19:01:14.360Z,16.10
2019-05-28T19:03:46.176Z,16.10
2019-05-28T19:06:14.519Z,16.00
2019-05-28T19:08:43.280Z,16.10
2019-05-28T19:11:12.021Z,16.10
2019-05-28T19:13:40.743Z,16.10
2019-05-28T19:16:09.562Z,16.10
2019-05-28T19:18:38.293Z,16.10
2019-05-28T19:21:07.069Z,16.00
2019-05-28T19:23:35.765Z,16.00
2019-05-28T19:26:04.595Z,16.00
2019-05-28T19:28:33.347Z,16.00
2019-05-28T19:31:02.331Z,16.00
2019-05-28T19:33:31.074Z,16.00
2019-05-28T19:36:01.004Z,16.00
2019-05-28T19:38:44.451Z,16.00
2019-05-28T19:41:00.339Z,16.00
2019-05-28T19:43:29.002Z,16.00
2019-05-28T19:45:57.696Z,16.00
2019-05-28T19:48:26.378Z,16.00
2019-05-28T19:50:55.114Z,16.00
2019-05-28T19:53:23.844Z,15.90
2019-05-28T19:55:52.657Z,15.90
2019-05-28T19:58:21.326Z,15.90
2019-05-28T20:00:50.058Z,15.90
2019-05-28T20:03:18.790Z,15.90
2019-05-28T20:05:47.682Z,15.90
2019-05-28T20:08:16.396Z,15.90
2019-05-28T20:10:45.107Z,15.90
2019-05-28T20:13:13.864Z,15.90
2019-05-28T20:15:42.608Z,15.90
2019-05-28T20:18:25.904Z,15.90
2019-05-28T20:20:41.713Z,15.90
2019-05-28T20:23:10.446Z,15.90
2019-05-28T20:25:39.164Z,15.90
2019-05-28T20:28:07.900Z,15.80
2019-05-28T20:30:36.634Z,15.90
2019-05-28T20:33:05.425Z,15.90
2019-05-28T20:35:34.111Z,15.90
2019-05-28T20:38:06.338Z,15.90
2019-05-28T20:40:33.219Z,15.90
2019-05-28T20:43:02.083Z,15.90
2019-05-28T20:45:30.893Z,15.90
2019-05-28T20:48:00.473Z,15.90
2019-05-28T20:50:29.261Z,15.90
2019-05-28T20:52:57.986Z,15.90
2019-05-28T20:55:26.724Z,15.90
2019-05-28T20:57:55.469Z,15.90
2019-05-28T21:00:24.292Z,15.80
2019-05-28T21:02:53.844Z,15.80
2019-05-28T21:05:22.651Z,15.70
2019-05-28T21:07:52.967Z,15.60
2019-05-28T21:10:22.062Z,15.60
2019-05-28T21:12:50.936Z,15.50
2019-05-28T21:15:19.806Z,15.40
2019-05-28T21:17:49.057Z,15.40
2019-05-28T21:20:18.069Z,15.30
2019-05-28T21:22:46.795Z,15.20
2019-05-28T21:25:15.533Z,15.20
2019-05-28T21:27:44.273Z,15.10
2019-05-28T21:30:13.507Z,15.10
2019-05-28T21:32:42.320Z,15.00
2019-05-28T21:35:11.149Z,14.80
2019-05-28T21:37:39.888Z,14.80
2019-05-28T21:40:09.121Z,14.70
2019-05-28T21:42:37.852Z,14.80
2019-05-28T21:45:07.748Z,14.80
2019-05-28T21:47:36.485Z,14.80
2019-05-28T21:50:09.052Z,14.70
2019-05-28T21:52:37.783Z,14.70
2019-05-28T21:55:08.397Z,14.60
2019-05-28T21:57:37.441Z,14.50
2019-05-28T22:00:26.200Z,14.50
2019-05-28T22:02:54.918Z,14.40
2019-05-28T22:05:23.746Z,14.40
2019-05-28T22:07:52.465Z,14.40
2019-05-28T22:10:21.201Z,14.40
2019-05-28T22:12:50.007Z,14.50
2019-05-28T22:15:18.836Z,14.50
2019-05-28T22:17:47.584Z,14.50
2019-05-28T22:20:16.418Z,14.60
2019-05-28T22:22:45.232Z,14.60
2019-05-28T22:25:13.973Z,14.50
2019-05-28T22:27:42.710Z,14.50
2019-05-28T22:30:11.910Z,14.40
2019-05-28T22:32:40.658Z,14.50
2019-05-28T22:35:09.994Z,14.50
2019-05-28T22:37:38.725Z,14.50
2019-05-28T22:40:09.428Z,14.50
2019-05-28T22:42:38.195Z,14.40
2019-05-28T22:45:07.409Z,14.30
2019-05-28T22:47:36.223Z,14.30
2019-05-28T22:50:22.153Z,14.40
2019-05-28T22:52:40.003Z,14.40
2019-05-28T22:55:09.341Z,14.30
2019-05-28T22:57:38.065Z,14.40
2019-05-28T23:00:08.807Z,14.30
2019-05-28T23:02:37.595Z,14.20
2019-05-28T23:05:07.794Z,14.20
2019-05-28T23:07:36.605Z,14.10
2019-05-28T23:10:10.001Z,14.00
2019-05-28T23:12:38.674Z,14.00
2019-05-28T23:15:10.451Z,13.90
2019-05-28T23:17:39.412Z,13.90
2019-05-28T23:20:11.227Z,13.70
2019-05-28T23:22:40.253Z,13.40
2019-05-28T23:25:12.261Z,13.40
2019-05-28T23:27:40.998Z,13.50
2019-05-28T23:30:21.454Z,13.40
2019-05-28T23:32:40.747Z,13.40
2019-05-28T23:35:10.700Z,13.50
2019-05-28T23:37:39.637Z,13.50
2019-05-28T23:40:11.197Z,13.50
2019-05-28T23:42:40.013Z,13.30
2019-05-28T23:45:11.740Z,13.40
2019-05-28T23:47:40.604Z,13.20
2019-05-28T23:50:14.430Z,13.10
2019-05-28T23:52:40.408Z,13.00
2019-05-28T23:55:10.003Z,12.90
2019-05-28T23:57:37.910Z,12.90
